KE-6885 weather

Lewa Downs Airport
Lewa Downs, Eastern Province, Kenya

Public forecast

Using degrees Celsius for public forecast. Weather courtesy of forecast.io.

METAR (pilot weather report)

Report is more than 6 hours old.

Closest report is Nanyuki Airport, 30.1 nm (55.7 km) WSW. Retrieved 2016/11/04 11:00 UTC (2 years ago):

HKNY 041100Z 33003KT 9999 FEW022CB BKN024 24/11 Q1024

TAF (pilot weather forecast)

Forecast is more than 12 hours old.

Closest forecast is Embu Airport, 46.2 nm (85.5 km) S. Retrieved 2014/01/20 10:00 UTC (5 years ago):

TAF HRYYMYX ?SAEA20 HKNC 201000 RRA METAR HKEM 201000Z 07012KT 9999 SCT024 25/15